sensor_id;sensor_type;location;lat;lon;timestamp;P1;durP1;ratioP1;P2;durP2;ratioP2
83541;SDS011;73485;49.194;12.104;2024-03-08T00:01:02;22.58;;;10.43;;
83541;SDS011;73485;49.194;12.104;2024-03-08T00:03:30;23.65;;;10.40;;
83541;SDS011;73485;49.194;12.104;2024-03-08T00:05:58;27.25;;;11.45;;
83541;SDS011;73485;49.194;12.104;2024-03-08T00:08:26;24.40;;;10.35;;
83541;SDS011;73485;49.194;12.104;2024-03-08T00:10:54;21.63;;;9.65;;
83541;SDS011;73485;49.194;12.104;2024-03-08T00:13:21;21.27;;;10.27;;
83541;SDS011;73485;49.194;12.104;2024-03-08T00:15:51;26.10;;;11.55;;
83541;SDS011;73485;49.194;12.104;2024-03-08T00:18:20;25.90;;;10.85;;
83541;SDS011;73485;49.194;12.104;2024-03-08T00:20:48;26.33;;;11.52;;
83541;SDS011;73485;49.194;12.104;2024-03-08T00:23:17;30.55;;;11.57;;
83541;SDS011;73485;49.194;12.104;2024-03-08T00:25:44;25.25;;;11.23;;
83541;SDS011;73485;49.194;12.104;2024-03-08T00:28:12;30.85;;;13.05;;
83541;SDS011;73485;49.194;12.104;2024-03-08T00:30:41;26.35;;;11.27;;
83541;SDS011;73485;49.194;12.104;2024-03-08T00:33:09;31.13;;;11.35;;
83541;SDS011;73485;49.194;12.104;2024-03-08T00:35:38;29.88;;;12.65;;
83541;SDS011;73485;49.194;12.104;2024-03-08T00:38:06;24.10;;;11.32;;
83541;SDS011;73485;49.194;12.104;2024-03-08T00:40:33;29.88;;;14.05;;
83541;SDS011;73485;49.194;12.104;2024-03-08T00:43:01;22.60;;;11.07;;
83541;SDS011;73485;49.194;12.104;2024-03-08T00:45:29;26.90;;;11.27;;
83541;SDS011;73485;49.194;12.104;2024-03-08T00:47:57;26.38;;;11.98;;
83541;SDS011;73485;49.194;12.104;2024-03-08T00:50:25;21.17;;;10.75;;
83541;SDS011;73485;49.194;12.104;2024-03-08T00:52:54;31.42;;;13.48;;
83541;SDS011;73485;49.194;12.104;2024-03-08T00:55:22;27.52;;;11.95;;
83541;SDS011;73485;49.194;12.104;2024-03-08T00:57:50;27.27;;;11.05;;
83541;SDS011;73485;49.194;12.104;2024-03-08T01:00:19;28.58;;;12.25;;
83541;SDS011;73485;49.194;12.104;2024-03-08T01:02:47;26.23;;;10.32;;
83541;SDS011;73485;49.194;12.104;2024-03-08T01:05:15;26.45;;;11.77;;
83541;SDS011;73485;49.194;12.104;2024-03-08T01:07:43;26.13;;;11.23;;
83541;SDS011;73485;49.194;12.104;2024-03-08T01:10:14;29.52;;;12.32;;
83541;SDS011;73485;49.194;12.104;2024-03-08T01:12:42;29.75;;;13.45;;
83541;SDS011;73485;49.194;12.104;2024-03-08T01:15:10;24.60;;;11.85;;
83541;SDS011;73485;49.194;12.104;2024-03-08T01:20:08;26.65;;;10.88;;
83541;SDS011;73485;49.194;12.104;2024-03-08T01:22:37;26.67;;;10.95;;
83541;SDS011;73485;49.194;12.104;2024-03-08T01:25:05;27.60;;;12.40;;
83541;SDS011;73485;49.194;12.104;2024-03-08T01:27:36;23.40;;;12.75;;
83541;SDS011;73485;49.194;12.104;2024-03-08T01:30:04;25.23;;;10.65;;
83541;SDS011;73485;49.194;12.104;2024-03-08T01:32:33;25.60;;;11.60;;
83541;SDS011;73485;49.194;12.104;2024-03-08T01:35:01;25.05;;;12.77;;
83541;SDS011;73485;49.194;12.104;2024-03-08T01:37:29;27.27;;;12.45;;
83541;SDS011;73485;49.194;12.104;2024-03-08T01:39:56;28.85;;;10.25;;
83541;SDS011;73485;49.194;12.104;2024-03-08T01:42:24;26.00;;;11.75;;
83541;SDS011;73485;49.194;12.104;2024-03-08T01:44:53;31.38;;;12.70;;
83541;SDS011;73485;49.194;12.104;2024-03-08T01:47:22;27.73;;;12.18;;
83541;SDS011;73485;49.194;12.104;2024-03-08T01:49:49;20.38;;;10.88;;
83541;SDS011;73485;49.194;12.104;2024-03-08T01:52:17;26.58;;;11.63;;
83541;SDS011;73485;49.194;12.104;2024-03-08T01:54:49;27.10;;;10.93;;
83541;SDS011;73485;49.194;12.104;2024-03-08T01:57:17;30.92;;;10.88;;
83541;SDS011;73485;49.194;12.104;2024-03-08T01:59:45;29.33;;;12.63;;
83541;SDS011;73485;49.194;12.104;2024-03-08T02:02:14;26.42;;;12.05;;
83541;SDS011;73485;49.194;12.104;2024-03-08T02:04:46;24.63;;;11.02;;
83541;SDS011;73485;49.194;12.104;2024-03-08T02:07:13;26.88;;;12.65;;
83541;SDS011;73485;49.194;12.104;2024-03-08T02:09:41;29.48;;;12.93;;
83541;SDS011;73485;49.194;12.104;2024-03-08T02:12:09;22.23;;;11.63;;
83541;SDS011;73485;49.194;12.104;2024-03-08T02:14:37;33.40;;;12.40;;
83541;SDS011;73485;49.194;12.104;2024-03-08T02:17:06;21.35;;;9.93;;
83541;SDS011;73485;49.194;12.104;2024-03-08T02:19:36;30.52;;;12.20;;
83541;SDS011;73485;49.194;12.104;2024-03-08T02:22:06;28.35;;;13.65;;
83541;SDS011;73485;49.194;12.104;2024-03-08T02:24:34;28.70;;;12.48;;
83541;SDS011;73485;49.194;12.104;2024-03-08T02:27:02;23.90;;;11.07;;
83541;SDS011;73485;49.194;12.104;2024-03-08T02:29:30;28.35;;;11.15;;
83541;SDS011;73485;49.194;12.104;2024-03-08T02:31:58;26.70;;;12.48;;
83541;SDS011;73485;49.194;12.104;2024-03-08T02:34:26;31.02;;;12.00;;
83541;SDS011;73485;49.194;12.104;2024-03-08T02:36:54;34.85;;;13.32;;
83541;SDS011;73485;49.194;12.104;2024-03-08T02:39:24;33.22;;;13.05;;
83541;SDS011;73485;49.194;12.104;2024-03-08T02:41:52;27.13;;;11.13;;
83541;SDS011;73485;49.194;12.104;2024-03-08T02:44:19;26.38;;;13.82;;
83541;SDS011;73485;49.194;12.104;2024-03-08T02:46:48;25.50;;;10.73;;
83541;SDS011;73485;49.194;12.104;2024-03-08T02:49:16;28.02;;;11.60;;
83541;SDS011;73485;49.194;12.104;2024-03-08T02:51:44;29.75;;;11.88;;
83541;SDS011;73485;49.194;12.104;2024-03-08T02:54:12;33.50;;;13.80;;
83541;SDS011;73485;49.194;12.104;2024-03-08T02:56:41;26.60;;;12.73;;
83541;SDS011;73485;49.194;12.104;2024-03-08T02:59:09;31.42;;;14.15;;
83541;SDS011;73485;49.194;12.104;2024-03-08T03:01:36;28.67;;;11.65;;
83541;SDS011;73485;49.194;12.104;2024-03-08T03:04:04;27.30;;;12.73;;
83541;SDS011;73485;49.194;12.104;2024-03-08T03:06:32;32.50;;;13.15;;
83541;SDS011;73485;49.194;12.104;2024-03-08T03:09:00;30.80;;;12.85;;
83541;SDS011;73485;49.194;12.104;2024-03-08T03:11:28;30.88;;;13.25;;
83541;SDS011;73485;49.194;12.104;2024-03-08T03:13:57;31.13;;;11.98;;
83541;SDS011;73485;49.194;12.104;2024-03-08T03:16:24;29.77;;;12.73;;
83541;SDS011;73485;49.194;12.104;2024-03-08T03:18:52;30.63;;;12.98;;
83541;SDS011;73485;49.194;12.104;2024-03-08T03:21:20;27.38;;;13.23;;
83541;SDS011;73485;49.194;12.104;2024-03-08T03:23:48;24.67;;;11.93;;
83541;SDS011;73485;49.194;12.104;2024-03-08T03:26:15;29.17;;;12.65;;
83541;SDS011;73485;49.194;12.104;2024-03-08T03:28:43;33.47;;;12.85;;
83541;SDS011;73485;49.194;12.104;2024-03-08T03:31:12;31.00;;;12.95;;
83541;SDS011;73485;49.194;12.104;2024-03-08T03:33:41;31.73;;;13.07;;
83541;SDS011;73485;49.194;12.104;2024-03-08T03:36:09;29.20;;;11.95;;
83541;SDS011;73485;49.194;12.104;2024-03-08T03:38:38;20.75;;;11.05;;
83541;SDS011;73485;49.194;12.104;2024-03-08T03:41:05;31.88;;;12.38;;
83541;SDS011;73485;49.194;12.104;2024-03-08T03:43:36;32.10;;;13.07;;
83541;SDS011;73485;49.194;12.104;2024-03-08T03:46:05;33.63;;;13.10;;
83541;SDS011;73485;49.194;12.104;2024-03-08T03:48:35;32.63;;;13.27;;
83541;SDS011;73485;49.194;12.104;2024-03-08T03:51:03;25.35;;;12.45;;
83541;SDS011;73485;49.194;12.104;2024-03-08T03:53:31;27.33;;;12.73;;
83541;SDS011;73485;49.194;12.104;2024-03-08T03:55:59;26.90;;;12.63;;
83541;SDS011;73485;49.194;12.104;2024-03-08T03:58:26;31.00;;;14.45;;
83541;SDS011;73485;49.194;12.104;2024-03-08T04:00:54;28.42;;;12.27;;
83541;SDS011;73485;49.194;12.104;2024-03-08T04:03:21;30.02;;;13.13;;
83541;SDS011;73485;49.194;12.104;2024-03-08T04:05:50;30.90;;;11.93;;
83541;SDS011;73485;49.194;12.104;2024-03-08T04:08:18;30.98;;;13.20;;
83541;SDS011;73485;49.194;12.104;2024-03-08T04:10:46;32.70;;;12.52;;
83541;SDS011;73485;49.194;12.104;2024-03-08T04:13:14;31.02;;;12.77;;
83541;SDS011;73485;49.194;12.104;2024-03-08T04:15:42;29.50;;;13.57;;
83541;SDS011;73485;49.194;12.104;2024-03-08T04:18:15;34.60;;;13.05;;
83541;SDS011;73485;49.194;12.104;2024-03-08T04:20:42;33.00;;;12.50;;
83541;SDS011;73485;49.194;12.104;2024-03-08T04:23:12;36.03;;;15.80;;
83541;SDS011;73485;49.194;12.104;2024-03-08T04:25:39;35.20;;;12.50;;
83541;SDS011;73485;49.194;12.104;2024-03-08T04:28:08;31.90;;;12.82;;
83541;SDS011;73485;49.194;12.104;2024-03-08T04:30:38;32.28;;;13.15;;
83541;SDS011;73485;49.194;12.104;2024-03-08T04:33:06;25.50;;;12.40;;
83541;SDS011;73485;49.194;12.104;2024-03-08T04:35:35;33.80;;;13.32;;
83541;SDS011;73485;49.194;12.104;2024-03-08T04:38:03;29.58;;;11.07;;
83541;SDS011;73485;49.194;12.104;2024-03-08T04:40:33;32.80;;;12.82;;
83541;SDS011;73485;49.194;12.104;2024-03-08T04:43:01;33.83;;;13.18;;
83541;SDS011;73485;49.194;12.104;2024-03-08T04:45:30;29.85;;;12.15;;
83541;SDS011;73485;49.194;12.104;2024-03-08T04:47:57;31.67;;;15.35;;
83541;SDS011;73485;49.194;12.104;2024-03-08T04:50:25;30.35;;;13.98;;
83541;SDS011;73485;49.194;12.104;2024-03-08T04:52:55;31.55;;;12.95;;
83541;SDS011;73485;49.194;12.104;2024-03-08T04:55:23;32.45;;;14.20;;
83541;SDS011;73485;49.194;12.104;2024-03-08T04:57:52;32.38;;;13.88;;
83541;SDS011;73485;49.194;12.104;2024-03-08T05:00:20;30.65;;;13.73;;
83541;SDS011;73485;49.194;12.104;2024-03-08T05:02:48;33.42;;;14.20;;
83541;SDS011;73485;49.194;12.104;2024-03-08T05:05:19;36.30;;;13.88;;
83541;SDS011;73485;49.194;12.104;2024-03-08T05:07:49;29.65;;;13.60;;
83541;SDS011;73485;49.194;12.104;2024-03-08T05:10:16;27.58;;;12.73;;
83541;SDS011;73485;49.194;12.104;2024-03-08T05:12:44;30.65;;;12.88;;
83541;SDS011;73485;49.194;12.104;2024-03-08T05:15:13;37.75;;;12.77;;
83541;SDS011;73485;49.194;12.104;2024-03-08T05:17:41;34.72;;;15.20;;
83541;SDS011;73485;49.194;12.104;2024-03-08T05:20:09;27.10;;;12.20;;
83541;SDS011;73485;49.194;12.104;2024-03-08T05:22:39;35.80;;;16.30;;
83541;SDS011;73485;49.194;12.104;2024-03-08T05:25:08;33.67;;;14.23;;
83541;SDS011;73485;49.194;12.104;2024-03-08T05:27:36;29.83;;;12.93;;
83541;SDS011;73485;49.194;12.104;2024-03-08T05:30:04;32.60;;;12.98;;
83541;SDS011;73485;49.194;12.104;2024-03-08T05:32:34;28.83;;;13.65;;
83541;SDS011;73485;49.194;12.104;2024-03-08T05:35:02;34.67;;;14.48;;
83541;SDS011;73485;49.194;12.104;2024-03-08T05:37:33;39.92;;;14.80;;
83541;SDS011;73485;49.194;12.104;2024-03-08T05:40:01;32.83;;;14.73;;
83541;SDS011;73485;49.194;12.104;2024-03-08T05:42:29;33.13;;;15.20;;
83541;SDS011;73485;49.194;12.104;2024-03-08T05:44:57;38.92;;;14.10;;
83541;SDS011;73485;49.194;12.104;2024-03-08T05:47:25;40.03;;;15.10;;
83541;SDS011;73485;49.194;12.104;2024-03-08T05:49:58;37.90;;;16.13;;
83541;SDS011;73485;49.194;12.104;2024-03-08T05:52:25;31.70;;;13.93;;
83541;SDS011;73485;49.194;12.104;2024-03-08T05:54:53;30.90;;;13.15;;
83541;SDS011;73485;49.194;12.104;2024-03-08T05:57:21;30.17;;;12.57;;
83541;SDS011;73485;49.194;12.104;2024-03-08T05:59:49;27.48;;;12.88;;
83541;SDS011;73485;49.194;12.104;2024-03-08T06:02:17;32.67;;;13.40;;
83541;SDS011;73485;49.194;12.104;2024-03-08T06:04:45;36.15;;;15.05;;
83541;SDS011;73485;49.194;12.104;2024-03-08T06:07:14;33.53;;;14.43;;
83541;SDS011;73485;49.194;12.104;2024-03-08T06:09:43;33.13;;;14.25;;
83541;SDS011;73485;49.194;12.104;2024-03-08T06:12:14;32.40;;;14.50;;
83541;SDS011;73485;49.194;12.104;2024-03-08T06:14:45;30.85;;;12.38;;
83541;SDS011;73485;49.194;12.104;2024-03-08T06:17:12;26.55;;;11.55;;
83541;SDS011;73485;49.194;12.104;2024-03-08T06:19:40;33.25;;;13.75;;
83541;SDS011;73485;49.194;12.104;2024-03-08T06:22:08;27.92;;;12.95;;
83541;SDS011;73485;49.194;12.104;2024-03-08T06:24:37;23.85;;;11.77;;
83541;SDS011;73485;49.194;12.104;2024-03-08T06:27:04;42.03;;;13.80;;
83541;SDS011;73485;49.194;12.104;2024-03-08T06:29:32;33.90;;;13.60;;
83541;SDS011;73485;49.194;12.104;2024-03-08T06:32:00;32.85;;;12.77;;
83541;SDS011;73485;49.194;12.104;2024-03-08T06:34:28;33.63;;;12.57;;
83541;SDS011;73485;49.194;12.104;2024-03-08T06:36:56;28.77;;;12.43;;
83541;SDS011;73485;49.194;12.104;2024-03-08T06:39:27;32.83;;;16.02;;
83541;SDS011;73485;49.194;12.104;2024-03-08T06:41:57;32.90;;;14.25;;
83541;SDS011;73485;49.194;12.104;2024-03-08T06:44:26;35.58;;;13.18;;
83541;SDS011;73485;49.194;12.104;2024-03-08T06:46:53;34.28;;;12.35;;
83541;SDS011;73485;49.194;12.104;2024-03-08T06:49:25;25.80;;;12.02;;
83541;SDS011;73485;49.194;12.104;2024-03-08T06:51:53;34.70;;;13.38;;
83541;SDS011;73485;49.194;12.104;2024-03-08T06:54:20;32.67;;;12.68;;
83541;SDS011;73485;49.194;12.104;2024-03-08T06:56:48;33.65;;;14.63;;
83541;SDS011;73485;49.194;12.104;2024-03-08T06:59:18;37.65;;;13.77;;
83541;SDS011;73485;49.194;12.104;2024-03-08T07:01:46;37.88;;;13.30;;
83541;SDS011;73485;49.194;12.104;2024-03-08T07:04:14;33.63;;;12.98;;
83541;SDS011;73485;49.194;12.104;2024-03-08T07:06:42;33.47;;;13.25;;
83541;SDS011;73485;49.194;12.104;2024-03-08T07:09:10;33.45;;;13.45;;
83541;SDS011;73485;49.194;12.104;2024-03-08T07:11:38;34.08;;;13.60;;
83541;SDS011;73485;49.194;12.104;2024-03-08T07:14:10;33.67;;;14.73;;
83541;SDS011;73485;49.194;12.104;2024-03-08T07:16:39;35.03;;;12.63;;
83541;SDS011;73485;49.194;12.104;2024-03-08T07:19:07;36.30;;;13.68;;
83541;SDS011;73485;49.194;12.104;2024-03-08T07:21:35;32.45;;;13.30;;
83541;SDS011;73485;49.194;12.104;2024-03-08T07:24:03;31.70;;;13.27;;
83541;SDS011;73485;49.194;12.104;2024-03-08T07:26:45;29.65;;;13.48;;
83541;SDS011;73485;49.194;12.104;2024-03-08T07:29:17;33.50;;;14.98;;
83541;SDS011;73485;49.194;12.104;2024-03-08T07:31:46;31.73;;;12.80;;
83541;SDS011;73485;49.194;12.104;2024-03-08T07:34:22;32.08;;;14.45;;
83541;SDS011;73485;49.194;12.104;2024-03-08T07:36:50;31.05;;;14.23;;
83541;SDS011;73485;49.194;12.104;2024-03-08T07:39:18;37.80;;;13.93;;
83541;SDS011;73485;49.194;12.104;2024-03-08T07:41:45;35.42;;;14.35;;
83541;SDS011;73485;49.194;12.104;2024-03-08T07:44:14;32.20;;;12.98;;
83541;SDS011;73485;49.194;12.104;2024-03-08T07:46:42;34.72;;;13.75;;
83541;SDS011;73485;49.194;12.104;2024-03-08T07:49:11;31.98;;;12.07;;
83541;SDS011;73485;49.194;12.104;2024-03-08T07:51:40;34.75;;;13.55;;
83541;SDS011;73485;49.194;12.104;2024-03-08T07:54:08;35.83;;;13.88;;
83541;SDS011;73485;49.194;12.104;2024-03-08T07:56:36;33.42;;;13.00;;
83541;SDS011;73485;49.194;12.104;2024-03-08T07:59:04;34.25;;;13.48;;
83541;SDS011;73485;49.194;12.104;2024-03-08T08:01:32;30.90;;;13.02;;
83541;SDS011;73485;49.194;12.104;2024-03-08T08:04:00;30.80;;;14.15;;
83541;SDS011;73485;49.194;12.104;2024-03-08T08:06:29;33.45;;;12.20;;
83541;SDS011;73485;49.194;12.104;2024-03-08T08:08:59;37.28;;;14.40;;
83541;SDS011;73485;49.194;12.104;2024-03-08T08:11:27;33.50;;;13.38;;
83541;SDS011;73485;49.194;12.104;2024-03-08T08:13:55;36.08;;;13.35;;
83541;SDS011;73485;49.194;12.104;2024-03-08T08:16:23;31.67;;;13.25;;
83541;SDS011;73485;49.194;12.104;2024-03-08T08:18:52;34.65;;;13.27;;
83541;SDS011;73485;49.194;12.104;2024-03-08T08:21:20;32.42;;;13.88;;
83541;SDS011;73485;49.194;12.104;2024-03-08T08:23:49;33.33;;;13.10;;
83541;SDS011;73485;49.194;12.104;2024-03-08T08:26:17;25.13;;;12.55;;
83541;SDS011;73485;49.194;12.104;2024-03-08T08:28:45;29.52;;;13.90;;
83541;SDS011;73485;49.194;12.104;2024-03-08T08:31:13;32.22;;;12.95;;
83541;SDS011;73485;49.194;12.104;2024-03-08T08:33:41;30.95;;;12.13;;
83541;SDS011;73485;49.194;12.104;2024-03-08T08:36:11;27.70;;;13.38;;
83541;SDS011;73485;49.194;12.104;2024-03-08T08:38:40;29.58;;;11.77;;
83541;SDS011;73485;49.194;12.104;2024-03-08T08:41:11;29.45;;;11.88;;
83541;SDS011;73485;49.194;12.104;2024-03-08T08:43:40;27.63;;;11.48;;
83541;SDS011;73485;49.194;12.104;2024-03-08T08:46:23;29.20;;;11.63;;
83541;SDS011;73485;49.194;12.104;2024-03-08T08:48:52;27.55;;;11.77;;
83541;SDS011;73485;49.194;12.104;2024-03-08T08:51:20;21.30;;;11.00;;
83541;SDS011;73485;49.194;12.104;2024-03-08T08:53:49;28.23;;;11.85;;
83541;SDS011;73485;49.194;12.104;2024-03-08T08:56:18;27.35;;;11.95;;
83541;SDS011;73485;49.194;12.104;2024-03-08T08:58:46;28.35;;;10.88;;
83541;SDS011;73485;49.194;12.104;2024-03-08T09:01:15;30.88;;;10.82;;
83541;SDS011;73485;49.194;12.104;2024-03-08T09:03:45;31.40;;;11.88;;
83541;SDS011;73485;49.194;12.104;2024-03-08T09:06:13;28.60;;;12.30;;
83541;SDS011;73485;49.194;12.104;2024-03-08T09:08:41;26.40;;;11.07;;
83541;SDS011;73485;49.194;12.104;2024-03-08T09:11:10;23.55;;;10.77;;
83541;SDS011;73485;49.194;12.104;2024-03-08T09:13:39;27.25;;;11.27;;
83541;SDS011;73485;49.194;12.104;2024-03-08T09:16:07;24.40;;;9.95;;
83541;SDS011;73485;49.194;12.104;2024-03-08T09:18:37;27.17;;;12.57;;
83541;SDS011;73485;49.194;12.104;2024-03-08T09:21:05;23.50;;;10.93;;
83541;SDS011;73485;49.194;12.104;2024-03-08T09:23:36;27.63;;;10.50;;
83541;SDS011;73485;49.194;12.104;2024-03-08T09:26:04;23.70;;;9.57;;
83541;SDS011;73485;49.194;12.104;2024-03-08T09:28:45;26.05;;;9.75;;
83541;SDS011;73485;49.194;12.104;2024-03-08T09:31:13;22.25;;;10.30;;
83541;SDS011;73485;49.194;12.104;2024-03-08T09:33:41;23.48;;;10.05;;
83541;SDS011;73485;49.194;12.104;2024-03-08T09:36:09;21.52;;;9.85;;
83541;SDS011;73485;49.194;12.104;2024-03-08T09:38:39;20.65;;;9.98;;
83541;SDS011;73485;49.194;12.104;2024-03-08T09:41:09;24.50;;;10.60;;
83541;SDS011;73485;49.194;12.104;2024-03-08T09:43:38;23.67;;;9.95;;
83541;SDS011;73485;49.194;12.104;2024-03-08T09:46:07;21.25;;;9.23;;
83541;SDS011;73485;49.194;12.104;2024-03-08T09:48:37;21.83;;;9.13;;
83541;SDS011;73485;49.194;12.104;2024-03-08T09:51:07;17.50;;;8.90;;
83541;SDS011;73485;49.194;12.104;2024-03-08T09:53:39;20.55;;;8.95;;
83541;SDS011;73485;49.194;12.104;2024-03-08T09:56:08;22.23;;;10.20;;
83541;SDS011;73485;49.194;12.104;2024-03-08T09:58:35;22.50;;;10.30;;
83541;SDS011;73485;49.194;12.104;2024-03-08T10:01:19;24.35;;;9.43;;
83541;SDS011;73485;49.194;12.104;2024-03-08T10:03:48;19.38;;;9.38;;
83541;SDS011;73485;49.194;12.104;2024-03-08T10:06:16;19.95;;;8.85;;
83541;SDS011;73485;49.194;12.104;2024-03-08T10:08:45;17.30;;;8.48;;
83541;SDS011;73485;49.194;12.104;2024-03-08T10:11:13;16.80;;;7.53;;
83541;SDS011;73485;49.194;12.104;2024-03-08T10:13:41;21.08;;;9.23;;
83541;SDS011;73485;49.194;12.104;2024-03-08T10:16:09;14.70;;;8.27;;
83541;SDS011;73485;49.194;12.104;2024-03-08T10:18:38;15.10;;;7.35;;
83541;SDS011;73485;49.194;12.104;2024-03-08T10:21:07;19.52;;;7.88;;
83541;SDS011;73485;49.194;12.104;2024-03-08T10:23:37;20.40;;;7.38;;
83541;SDS011;73485;49.194;12.104;2024-03-08T10:26:09;17.48;;;8.73;;
83541;SDS011;73485;49.194;12.104;2024-03-08T10:28:41;18.02;;;9.95;;
83541;SDS011;73485;49.194;12.104;2024-03-08T10:31:10;18.02;;;7.50;;
83541;SDS011;73485;49.194;12.104;2024-03-08T10:33:45;17.95;;;7.47;;
83541;SDS011;73485;49.194;12.104;2024-03-08T10:36:13;19.40;;;8.00;;
83541;SDS011;73485;49.194;12.104;2024-03-08T10:38:42;20.58;;;9.50;;
83541;SDS011;73485;49.194;12.104;2024-03-08T10:41:13;22.08;;;8.55;;
83541;SDS011;73485;49.194;12.104;2024-03-08T10:43:50;19.55;;;8.63;;
83541;SDS011;73485;49.194;12.104;2024-03-08T10:46:35;18.05;;;7.47;;
83541;SDS011;73485;49.194;12.104;2024-03-08T10:49:12;19.00;;;8.50;;
83541;SDS011;73485;49.194;12.104;2024-03-08T10:51:44;22.67;;;7.82;;
83541;SDS011;73485;49.194;12.104;2024-03-08T10:54:14;18.52;;;9.52;;
83541;SDS011;73485;49.194;12.104;2024-03-08T10:56:42;17.25;;;7.57;;
83541;SDS011;73485;49.194;12.104;2024-03-08T10:59:10;17.15;;;9.32;;
83541;SDS011;73485;49.194;12.104;2024-03-08T11:01:38;17.27;;;9.05;;
83541;SDS011;73485;49.194;12.104;2024-03-08T11:04:08;21.55;;;9.02;;
83541;SDS011;73485;49.194;12.104;2024-03-08T11:06:45;22.88;;;7.97;;
83541;SDS011;73485;49.194;12.104;2024-03-08T11:09:29;18.98;;;8.07;;
83541;SDS011;73485;49.194;12.104;2024-03-08T11:12:18;18.25;;;8.98;;
83541;SDS011;73485;49.194;12.104;2024-03-08T11:14:47;20.88;;;8.40;;
83541;SDS011;73485;49.194;12.104;2024-03-08T11:17:16;16.60;;;8.88;;
83541;SDS011;73485;49.194;12.104;2024-03-08T11:19:48;16.88;;;9.20;;
83541;SDS011;73485;49.194;12.104;2024-03-08T11:22:21;15.68;;;8.15;;
83541;SDS011;73485;49.194;12.104;2024-03-08T11:24:53;17.02;;;8.18;;
83541;SDS011;73485;49.194;12.104;2024-03-08T11:27:21;19.83;;;9.13;;
83541;SDS011;73485;49.194;12.104;2024-03-08T11:29:59;16.05;;;8.93;;
83541;SDS011;73485;49.194;12.104;2024-03-08T11:32:35;19.23;;;8.88;;
83541;SDS011;73485;49.194;12.104;2024-03-08T11:35:05;16.35;;;8.35;;
83541;SDS011;73485;49.194;12.104;2024-03-08T11:37:35;16.25;;;7.38;;
83541;SDS011;73485;49.194;12.104;2024-03-08T11:40:11;13.45;;;7.30;;
83541;SDS011;73485;49.194;12.104;2024-03-08T11:42:43;14.60;;;6.93;;
83541;SDS011;73485;49.194;12.104;2024-03-08T11:45:13;16.40;;;7.25;;
83541;SDS011;73485;49.194;12.104;2024-03-08T11:47:41;13.10;;;6.93;;
83541;SDS011;73485;49.194;12.104;2024-03-08T11:50:12;15.43;;;7.97;;
83541;SDS011;73485;49.194;12.104;2024-03-08T11:52:43;15.23;;;6.47;;
83541;SDS011;73485;49.194;12.104;2024-03-08T11:55:11;13.77;;;6.75;;
83541;SDS011;73485;49.194;12.104;2024-03-08T11:57:39;15.85;;;6.63;;
83541;SDS011;73485;49.194;12.104;2024-03-08T12:00:14;13.63;;;6.18;;
83541;SDS011;73485;49.194;12.104;2024-03-08T12:03:00;11.73;;;5.97;;
83541;SDS011;73485;49.194;12.104;2024-03-08T12:05:29;16.05;;;7.32;;
83541;SDS011;73485;49.194;12.104;2024-03-08T12:07:59;15.20;;;7.38;;
83541;SDS011;73485;49.194;12.104;2024-03-08T12:10:26;13.68;;;6.93;;
83541;SDS011;73485;49.194;12.104;2024-03-08T12:12:55;15.73;;;7.00;;
83541;SDS011;73485;49.194;12.104;2024-03-08T12:15:25;13.80;;;6.22;;
83541;SDS011;73485;49.194;12.104;2024-03-08T12:17:54;12.50;;;6.30;;
83541;SDS011;73485;49.194;12.104;2024-03-08T12:20:23;12.88;;;7.15;;
83541;SDS011;73485;49.194;12.104;2024-03-08T12:22:52;13.48;;;6.82;;
83541;SDS011;73485;49.194;12.104;2024-03-08T12:25:27;12.68;;;6.63;;
83541;SDS011;73485;49.194;12.104;2024-03-08T12:28:06;12.65;;;5.78;;
83541;SDS011;73485;49.194;12.104;2024-03-08T12:30:37;12.50;;;6.70;;
83541;SDS011;73485;49.194;12.104;2024-03-08T12:33:13;13.48;;;6.53;;
83541;SDS011;73485;49.194;12.104;2024-03-08T12:35:41;17.75;;;6.22;;
83541;SDS011;73485;49.194;12.104;2024-03-08T12:38:20;13.85;;;6.07;;
83541;SDS011;73485;49.194;12.104;2024-03-08T12:40:54;12.45;;;6.47;;
83541;SDS011;73485;49.194;12.104;2024-03-08T12:43:23;13.05;;;6.25;;
83541;SDS011;73485;49.194;12.104;2024-03-08T12:45:51;13.13;;;6.10;;
83541;SDS011;73485;49.194;12.104;2024-03-08T12:48:19;12.20;;;7.07;;
83541;SDS011;73485;49.194;12.104;2024-03-08T12:50:47;9.68;;;5.72;;
83541;SDS011;73485;49.194;12.104;2024-03-08T12:53:17;12.85;;;6.72;;
83541;SDS011;73485;49.194;12.104;2024-03-08T12:55:45;12.93;;;5.55;;
83541;SDS011;73485;49.194;12.104;2024-03-08T12:58:14;13.65;;;5.85;;
83541;SDS011;73485;49.194;12.104;2024-03-08T13:00:43;13.60;;;6.60;;
83541;SDS011;73485;49.194;12.104;2024-03-08T13:03:11;10.40;;;5.82;;
83541;SDS011;73485;49.194;12.104;2024-03-08T13:05:38;12.05;;;5.90;;
83541;SDS011;73485;49.194;12.104;2024-03-08T13:08:08;11.85;;;6.53;;
83541;SDS011;73485;49.194;12.104;2024-03-08T13:10:39;13.38;;;6.80;;
83541;SDS011;73485;49.194;12.104;2024-03-08T13:13:10;13.07;;;7.15;;
83541;SDS011;73485;49.194;12.104;2024-03-08T13:15:40;13.43;;;6.60;;
83541;SDS011;73485;49.194;12.104;2024-03-08T13:18:08;15.32;;;8.13;;
83541;SDS011;73485;49.194;12.104;2024-03-08T13:20:37;14.02;;;5.97;;
83541;SDS011;73485;49.194;12.104;2024-03-08T13:23:13;13.35;;;5.82;;
83541;SDS011;73485;49.194;12.104;2024-03-08T13:25:40;14.57;;;6.95;;
83541;SDS011;73485;49.194;12.104;2024-03-08T13:28:08;13.68;;;7.10;;
83541;SDS011;73485;49.194;12.104;2024-03-08T13:30:37;12.23;;;6.25;;
83541;SDS011;73485;49.194;12.104;2024-03-08T13:33:06;15.60;;;7.13;;
83541;SDS011;73485;49.194;12.104;2024-03-08T13:35:34;13.95;;;7.68;;
83541;SDS011;73485;49.194;12.104;2024-03-08T13:38:01;14.20;;;8.30;;
83541;SDS011;73485;49.194;12.104;2024-03-08T13:40:31;12.98;;;7.03;;
83541;SDS011;73485;49.194;12.104;2024-03-08T13:42:58;13.57;;;7.60;;
83541;SDS011;73485;49.194;12.104;2024-03-08T13:45:27;11.90;;;6.55;;
83541;SDS011;73485;49.194;12.104;2024-03-08T13:47:55;13.88;;;6.07;;
83541;SDS011;73485;49.194;12.104;2024-03-08T13:50:24;12.95;;;7.45;;
83541;SDS011;73485;49.194;12.104;2024-03-08T13:52:53;13.55;;;6.68;;
83541;SDS011;73485;49.194;12.104;2024-03-08T13:55:22;12.88;;;6.07;;
83541;SDS011;73485;49.194;12.104;2024-03-08T13:57:52;15.27;;;7.00;;
83541;SDS011;73485;49.194;12.104;2024-03-08T14:00:19;14.30;;;7.05;;
83541;SDS011;73485;49.194;12.104;2024-03-08T14:02:49;14.35;;;6.70;;
83541;SDS011;73485;49.194;12.104;2024-03-08T14:05:16;12.52;;;6.85;;
83541;SDS011;73485;49.194;12.104;2024-03-08T14:07:47;12.25;;;6.78;;
83541;SDS011;73485;49.194;12.104;2024-03-08T14:10:16;12.88;;;6.40;;
83541;SDS011;73485;49.194;12.104;2024-03-08T14:12:46;13.15;;;6.00;;
83541;SDS011;73485;49.194;12.104;2024-03-08T14:15:14;11.65;;;5.38;;
83541;SDS011;73485;49.194;12.104;2024-03-08T14:17:42;12.93;;;6.82;;
83541;SDS011;73485;49.194;12.104;2024-03-08T14:20:12;14.30;;;7.18;;
83541;SDS011;73485;49.194;12.104;2024-03-08T14:22:41;10.80;;;5.63;;
83541;SDS011;73485;49.194;12.104;2024-03-08T14:25:10;12.32;;;6.07;;
83541;SDS011;73485;49.194;12.104;2024-03-08T14:27:44;13.38;;;5.78;;